sensor_id;sensor_type;location;lat;lon;timestamp;pressure;altitude;pressure_sealevel;temperature;humidity
57248;BME280;55809;46.618;10.764;2023-05-25T00:00:21;93023.28;;;11.81;95.98
57248;BME280;55809;46.618;10.764;2023-05-25T00:02:52;93069.81;;;12.07;96.17
57248;BME280;55809;46.618;10.764;2023-05-25T00:05:23;93062.94;;;11.99;96.73
57248;BME280;55809;46.618;10.764;2023-05-25T00:07:51;93110.41;;;12.41;96.92
57248;BME280;55809;46.618;10.764;2023-05-25T00:10:19;93118.09;;;12.42;97.49
57248;BME280;55809;46.618;10.764;2023-05-25T00:12:46;93114.19;;;12.47;98.08
57248;BME280;55809;46.618;10.764;2023-05-25T00:15:13;93102.28;;;12.41;97.50
57248;BME280;55809;46.618;10.764;2023-05-25T00:17:41;93033.50;;;12.04;96.79
57248;BME280;55809;46.618;10.764;2023-05-25T00:20:08;93115.63;;;12.55;96.86
57248;BME280;55809;46.618;10.764;2023-05-25T00:22:42;93110.84;;;12.66;97.74
57248;BME280;55809;46.618;10.764;2023-05-25T00:25:10;93116.56;;;12.72;98.11
57248;BME280;55809;46.618;10.764;2023-05-25T00:27:38;93102.41;;;12.61;97.55
57248;BME280;55809;46.618;10.764;2023-05-25T00:30:06;93100.88;;;12.60;96.93
57248;BME280;55809;46.618;10.764;2023-05-25T00:32:34;93120.00;;;12.76;96.74
57248;BME280;55809;46.618;10.764;2023-05-25T00:35:01;93116.13;;;12.77;96.16
57248;BME280;55809;46.618;10.764;2023-05-25T00:37:27;93116.47;;;12.79;95.74
57248;BME280;55809;46.618;10.764;2023-05-25T00:39:57;93106.47;;;12.76;95.80
57248;BME280;55809;46.618;10.764;2023-05-25T00:42:24;93112.28;;;12.75;97.69
57248;BME280;55809;46.618;10.764;2023-05-25T00:44:52;93088.06;;;12.64;96.28
57248;BME280;55809;46.618;10.764;2023-05-25T00:47:20;93105.78;;;12.68;96.93
57248;BME280;55809;46.618;10.764;2023-05-25T00:49:50;93080.28;;;12.35;97.47
57248;BME280;55809;46.618;10.764;2023-05-25T00:52:19;93080.38;;;12.28;98.25
57248;BME280;55809;46.618;10.764;2023-05-25T00:54:53;93095.00;;;12.34;98.92
57248;BME280;55809;46.618;10.764;2023-05-25T00:57:24;93098.75;;;12.44;98.43
57248;BME280;55809;46.618;10.764;2023-05-25T00:59:55;93067.53;;;12.36;97.09
57248;BME280;55809;46.618;10.764;2023-05-25T01:02:25;93066.63;;;12.46;96.04
57248;BME280;55809;46.618;10.764;2023-05-25T01:04:53;93104.88;;;12.79;95.51
57248;BME280;55809;46.618;10.764;2023-05-25T01:07:25;93105.69;;;12.76;95.33
57248;BME280;55809;46.618;10.764;2023-05-25T01:16:41;93098.69;;;12.78;94.95
57248;BME280;55809;46.618;10.764;2023-05-25T01:19:09;93088.41;;;12.66;94.38
57248;BME280;55809;46.618;10.764;2023-05-25T01:21:41;93099.84;;;12.81;94.06
57248;BME280;55809;46.618;10.764;2023-05-25T01:24:13;93097.56;;;12.76;94.59
57248;BME280;55809;46.618;10.764;2023-05-25T01:26:53;93091.94;;;12.63;95.14
57248;BME280;55809;46.618;10.764;2023-05-25T01:29:22;93095.09;;;12.58;95.75
57248;BME280;55809;46.618;10.764;2023-05-25T01:31:51;93101.69;;;12.57;96.07
57248;BME280;55809;46.618;10.764;2023-05-25T01:34:20;93104.09;;;12.51;95.87
57248;BME280;55809;46.618;10.764;2023-05-25T01:36:49;93107.94;;;12.54;94.96
57248;BME280;55809;46.618;10.764;2023-05-25T01:39:20;93088.75;;;12.41;95.11
57248;BME280;55809;46.618;10.764;2023-05-25T01:41:47;93071.81;;;12.33;94.61
57248;BME280;55809;46.618;10.764;2023-05-25T01:44:14;93084.94;;;12.35;93.92
57248;BME280;55809;46.618;10.764;2023-05-25T01:46:41;93109.59;;;12.44;95.30
57248;BME280;55809;46.618;10.764;2023-05-25T01:49:15;93063.50;;;12.17;95.02
57248;BME280;55809;46.618;10.764;2023-05-25T01:51:54;93114.19;;;12.47;95.15
57248;BME280;55809;46.618;10.764;2023-05-25T01:54:29;93102.56;;;12.47;94.56
57248;BME280;55809;46.618;10.764;2023-05-25T01:57:00;93093.84;;;12.35;93.72
57248;BME280;55809;46.618;10.764;2023-05-25T01:59:31;93077.34;;;12.23;93.53
57248;BME280;55809;46.618;10.764;2023-05-25T02:01:59;93118.78;;;12.50;93.42
57248;BME280;55809;46.618;10.764;2023-05-25T02:04:28;93068.81;;;12.28;92.60
57248;BME280;55809;46.618;10.764;2023-05-25T02:06:57;93109.03;;;12.56;92.93
57248;BME280;55809;46.618;10.764;2023-05-25T02:09:24;93106.41;;;12.49;92.71
57248;BME280;55809;46.618;10.764;2023-05-25T02:11:53;93116.72;;;12.61;92.30
57248;BME280;55809;46.618;10.764;2023-05-25T02:14:20;93114.78;;;12.62;92.28
57248;BME280;55809;46.618;10.764;2023-05-25T02:16:48;93107.03;;;12.64;91.54
57248;BME280;55809;46.618;10.764;2023-05-25T02:19:15;93110.16;;;12.59;91.22
57248;BME280;55809;46.618;10.764;2023-05-25T02:21:44;93083.69;;;12.43;91.34
57248;BME280;55809;46.618;10.764;2023-05-25T02:24:13;93121.41;;;12.57;91.88
57248;BME280;55809;46.618;10.764;2023-05-25T02:26:40;93114.63;;;12.42;92.77
57248;BME280;55809;46.618;10.764;2023-05-25T02:29:10;93131.63;;;12.42;93.26
57248;BME280;55809;46.618;10.764;2023-05-25T02:31:37;93125.91;;;12.37;93.70
57248;BME280;55809;46.618;10.764;2023-05-25T02:34:04;93134.88;;;12.30;94.65
57248;BME280;55809;46.618;10.764;2023-05-25T02:36:32;93101.13;;;12.08;94.44
57248;BME280;55809;46.618;10.764;2023-05-25T02:38:59;93139.47;;;12.33;94.51
57248;BME280;55809;46.618;10.764;2023-05-25T02:41:28;93140.22;;;12.34;94.18
57248;BME280;55809;46.618;10.764;2023-05-25T02:43:55;93136.38;;;12.35;94.05
57248;BME280;55809;46.618;10.764;2023-05-25T02:46:23;93140.66;;;12.32;94.64
57248;BME280;55809;46.618;10.764;2023-05-25T02:48:50;93139.44;;;12.37;95.44
57248;BME280;55809;46.618;10.764;2023-05-25T02:51:19;93145.66;;;12.34;95.21
57248;BME280;55809;46.618;10.764;2023-05-25T02:53:46;93142.59;;;12.32;95.44
57248;BME280;55809;46.618;10.764;2023-05-25T02:56:13;93139.22;;;12.24;95.51
57248;BME280;55809;46.618;10.764;2023-05-25T02:58:42;93136.09;;;12.26;94.78
57248;BME280;55809;46.618;10.764;2023-05-25T03:01:10;93136.88;;;12.23;95.35
57248;BME280;55809;46.618;10.764;2023-05-25T03:03:42;93128.84;;;12.15;94.92
57248;BME280;55809;46.618;10.764;2023-05-25T03:06:10;93135.00;;;12.19;95.39
57248;BME280;55809;46.618;10.764;2023-05-25T03:08:38;93161.88;;;12.37;95.29
57248;BME280;55809;46.618;10.764;2023-05-25T03:11:08;93090.84;;;11.92;94.56
57248;BME280;55809;46.618;10.764;2023-05-25T03:13:36;93161.25;;;12.23;95.81
57248;BME280;55809;46.618;10.764;2023-05-25T03:16:06;93161.66;;;12.21;95.62
57248;BME280;55809;46.618;10.764;2023-05-25T03:18:33;93172.88;;;12.19;95.87
57248;BME280;55809;46.618;10.764;2023-05-25T03:21:01;93120.66;;;11.85;96.91
57248;BME280;55809;46.618;10.764;2023-05-25T03:23:29;93134.50;;;11.90;97.09
57248;BME280;55809;46.618;10.764;2023-05-25T03:25:56;93129.59;;;11.78;97.36
57248;BME280;55809;46.618;10.764;2023-05-25T03:28:23;93177.53;;;12.19;97.58
57248;BME280;55809;46.618;10.764;2023-05-25T03:30:52;93186.41;;;12.19;96.52
57248;BME280;55809;46.618;10.764;2023-05-25T03:33:20;93085.91;;;11.35;97.04
57248;BME280;55809;46.618;10.764;2023-05-25T03:35:55;93105.81;;;11.10;99.31
57248;BME280;55809;46.618;10.764;2023-05-25T03:38:35;93156.97;;;11.35;100.00
57248;BME280;55809;46.618;10.764;2023-05-25T03:41:02;93177.34;;;11.47;100.00
57248;BME280;55809;46.618;10.764;2023-05-25T03:43:30;93195.31;;;11.68;100.00
57248;BME280;55809;46.618;10.764;2023-05-25T03:45:58;93195.63;;;11.77;100.00
57248;BME280;55809;46.618;10.764;2023-05-25T03:48:28;93203.72;;;11.88;100.00
57248;BME280;55809;46.618;10.764;2023-05-25T03:50:55;93155.19;;;11.66;99.65
57248;BME280;55809;46.618;10.764;2023-05-25T03:53:22;93148.97;;;11.69;100.00
57248;BME280;55809;46.618;10.764;2023-05-25T03:55:49;93175.47;;;11.92;100.00
57248;BME280;55809;46.618;10.764;2023-05-25T03:58:17;93193.88;;;12.08;100.00
57248;BME280;55809;46.618;10.764;2023-05-25T04:00:46;93203.50;;;12.09;100.00
57248;BME280;55809;46.618;10.764;2023-05-25T04:03:15;93195.84;;;12.01;100.00
57248;BME280;55809;46.618;10.764;2023-05-25T04:05:44;93212.34;;;12.13;100.00
57248;BME280;55809;46.618;10.764;2023-05-25T04:08:13;93215.44;;;12.15;99.88
57248;BME280;55809;46.618;10.764;2023-05-25T04:10:42;93220.81;;;12.19;99.70
57248;BME280;55809;46.618;10.764;2023-05-25T04:13:09;93230.81;;;12.26;98.44
57248;BME280;55809;46.618;10.764;2023-05-25T04:15:37;93210.00;;;12.19;96.05
57248;BME280;55809;46.618;10.764;2023-05-25T04:18:04;93235.31;;;12.39;96.06
57248;BME280;55809;46.618;10.764;2023-05-25T04:20:31;93226.13;;;12.30;96.51
57248;BME280;55809;46.618;10.764;2023-05-25T04:23:00;93241.56;;;12.33;97.91
57248;BME280;55809;46.618;10.764;2023-05-25T04:25:28;93246.63;;;12.31;98.60
57248;BME280;55809;46.618;10.764;2023-05-25T04:27:56;93198.28;;;11.91;98.61
57248;BME280;55809;46.618;10.764;2023-05-25T04:30:29;93199.94;;;11.71;98.25
57248;BME280;55809;46.618;10.764;2023-05-25T04:33:01;93215.00;;;11.72;98.40
57248;BME280;55809;46.618;10.764;2023-05-25T04:35:38;93237.75;;;11.78;99.91
57248;BME280;55809;46.618;10.764;2023-05-25T04:38:27;93243.16;;;11.78;99.27
57248;BME280;55809;46.618;10.764;2023-05-25T04:40:59;93235.09;;;11.71;100.00
57248;BME280;55809;46.618;10.764;2023-05-25T04:43:28;93231.66;;;11.67;100.00
57248;BME280;55809;46.618;10.764;2023-05-25T04:45:56;93236.22;;;11.73;100.00
57248;BME280;55809;46.618;10.764;2023-05-25T04:48:24;93273.91;;;12.02;100.00
57248;BME280;55809;46.618;10.764;2023-05-25T04:50:54;93288.88;;;12.17;99.61
57248;BME280;55809;46.618;10.764;2023-05-25T04:53:25;93226.91;;;11.82;99.61
57248;BME280;55809;46.618;10.764;2023-05-25T04:55:52;93278.81;;;12.18;99.57
57248;BME280;55809;46.618;10.764;2023-05-25T04:58:21;93293.81;;;12.26;99.57
57248;BME280;55809;46.618;10.764;2023-05-25T05:00:51;93302.28;;;12.32;99.37
57248;BME280;55809;46.618;10.764;2023-05-25T05:03:20;93233.84;;;11.86;98.79
57248;BME280;55809;46.618;10.764;2023-05-25T05:05:47;93304.88;;;12.42;97.42
57248;BME280;55809;46.618;10.764;2023-05-25T05:08:16;93304.84;;;12.46;96.36
57248;BME280;55809;46.618;10.764;2023-05-25T05:10:49;93312.94;;;12.50;96.46
57248;BME280;55809;46.618;10.764;2023-05-25T05:13:16;93305.69;;;12.39;97.14
57248;BME280;55809;46.618;10.764;2023-05-25T05:15:43;93272.25;;;12.15;97.69
57248;BME280;55809;46.618;10.764;2023-05-25T05:18:11;93303.81;;;12.33;98.44
57248;BME280;55809;46.618;10.764;2023-05-25T05:20:38;93270.03;;;12.03;99.50
57248;BME280;55809;46.618;10.764;2023-05-25T05:23:08;93287.31;;;12.16;99.65
57248;BME280;55809;46.618;10.764;2023-05-25T05:25:38;93327.38;;;12.36;98.88
57248;BME280;55809;46.618;10.764;2023-05-25T05:28:07;93302.41;;;12.17;98.77
57248;BME280;55809;46.618;10.764;2023-05-25T05:30:34;93331.22;;;12.38;98.50
57248;BME280;55809;46.618;10.764;2023-05-25T05:33:02;93344.31;;;12.47;97.72
57248;BME280;55809;46.618;10.764;2023-05-25T05:35:30;93346.19;;;12.50;97.42
57248;BME280;55809;46.618;10.764;2023-05-25T05:37:57;93321.22;;;12.32;98.67
57248;BME280;55809;46.618;10.764;2023-05-25T05:40:24;93348.91;;;12.50;99.14
57248;BME280;55809;46.618;10.764;2023-05-25T05:42:52;93334.69;;;12.39;99.47
57248;BME280;55809;46.618;10.764;2023-05-25T05:45:21;93358.59;;;12.51;99.38
57248;BME280;55809;46.618;10.764;2023-05-25T05:47:50;93352.81;;;12.46;98.82
57248;BME280;55809;46.618;10.764;2023-05-25T05:50:18;93368.22;;;12.56;98.01
57248;BME280;55809;46.618;10.764;2023-05-25T05:52:46;93319.75;;;12.24;97.36
57248;BME280;55809;46.618;10.764;2023-05-25T05:55:15;93378.22;;;12.62;96.80
57248;BME280;55809;46.618;10.764;2023-05-25T05:57:51;93335.50;;;12.36;96.15
57248;BME280;55809;46.618;10.764;2023-05-25T06:00:28;93343.22;;;12.41;95.63
57248;BME280;55809;46.618;10.764;2023-05-25T06:03:14;93380.13;;;12.65;96.12
57248;BME280;55809;46.618;10.764;2023-05-25T06:05:43;93394.00;;;12.71;96.62
57248;BME280;55809;46.618;10.764;2023-05-25T06:08:13;93393.25;;;12.71;95.89
57248;BME280;55809;46.618;10.764;2023-05-25T06:10:43;93391.28;;;12.75;95.58
57248;BME280;55809;46.618;10.764;2023-05-25T06:13:13;93371.31;;;12.58;95.64
57248;BME280;55809;46.618;10.764;2023-05-25T06:15:53;93382.44;;;12.63;95.48
57248;BME280;55809;46.618;10.764;2023-05-25T06:18:24;93397.84;;;12.77;95.93
57248;BME280;55809;46.618;10.764;2023-05-25T06:20:52;93363.91;;;12.62;96.79
57248;BME280;55809;46.618;10.764;2023-05-25T06:23:20;93377.72;;;12.75;95.43
57248;BME280;55809;46.618;10.764;2023-05-25T06:25:51;93395.03;;;12.88;95.12
57248;BME280;55809;46.618;10.764;2023-05-25T06:28:22;93408.88;;;12.97;95.60
57248;BME280;55809;46.618;10.764;2023-05-25T06:30:52;93394.19;;;12.95;95.54
57248;BME280;55809;46.618;10.764;2023-05-25T06:33:21;93409.25;;;12.96;95.97
57248;BME280;55809;46.618;10.764;2023-05-25T06:35:57;93413.91;;;12.95;94.75
57248;BME280;55809;46.618;10.764;2023-05-25T06:38:28;93399.25;;;12.89;94.41
57248;BME280;55809;46.618;10.764;2023-05-25T06:40:56;93416.56;;;13.02;94.25
57248;BME280;55809;46.618;10.764;2023-05-25T06:43:29;93393.91;;;12.82;94.11
57248;BME280;55809;46.618;10.764;2023-05-25T06:46:04;93421.09;;;13.12;93.30
57248;BME280;55809;46.618;10.764;2023-05-25T06:48:34;93404.19;;;13.01;93.65
57248;BME280;55809;46.618;10.764;2023-05-25T06:51:12;93426.47;;;13.16;93.42
57248;BME280;55809;46.618;10.764;2023-05-25T06:53:42;93432.72;;;13.13;94.70
57248;BME280;55809;46.618;10.764;2023-05-25T06:56:10;93393.09;;;12.85;94.38
57248;BME280;55809;46.618;10.764;2023-05-25T06:58:41;93399.31;;;12.82;94.53
57248;BME280;55809;46.618;10.764;2023-05-25T07:01:11;93400.88;;;12.79;94.99
57248;BME280;55809;46.618;10.764;2023-05-25T07:03:40;93402.84;;;12.79;96.32
57248;BME280;55809;46.618;10.764;2023-05-25T07:06:07;93376.75;;;12.54;96.73
57248;BME280;55809;46.618;10.764;2023-05-25T07:08:37;93434.00;;;13.01;95.90
57248;BME280;55809;46.618;10.764;2023-05-25T07:11:05;93419.34;;;12.95;95.71
57248;BME280;55809;46.618;10.764;2023-05-25T07:13:37;93420.13;;;12.92;95.57
57248;BME280;55809;46.618;10.764;2023-05-25T07:16:04;93388.94;;;12.77;95.43
57248;BME280;55809;46.618;10.764;2023-05-25T07:18:34;93388.53;;;12.78;94.62
57248;BME280;55809;46.618;10.764;2023-05-25T07:21:06;93415.44;;;12.96;94.15
57248;BME280;55809;46.618;10.764;2023-05-25T07:23:37;93446.97;;;13.21;94.66
57248;BME280;55809;46.618;10.764;2023-05-25T07:26:08;93412.34;;;12.98;95.34
57248;BME280;55809;46.618;10.764;2023-05-25T07:28:37;93421.25;;;12.98;95.54
57248;BME280;55809;46.618;10.764;2023-05-25T07:31:07;93450.78;;;13.30;95.12
57248;BME280;55809;46.618;10.764;2023-05-25T07:33:37;93432.25;;;13.22;93.49
57248;BME280;55809;46.618;10.764;2023-05-25T07:36:06;93454.13;;;13.45;91.59
57248;BME280;55809;46.618;10.764;2023-05-25T07:38:35;93409.41;;;13.23;94.66
57248;BME280;55809;46.618;10.764;2023-05-25T07:41:03;93414.66;;;13.41;95.08
57248;BME280;55809;46.618;10.764;2023-05-25T07:43:46;93431.69;;;13.41;95.62
57248;BME280;55809;46.618;10.764;2023-05-25T07:56:27;93398.47;;;13.68;93.91
57248;BME280;55809;46.618;10.764;2023-05-25T07:58:56;93433.38;;;13.96;92.17
57248;BME280;55809;46.618;10.764;2023-05-25T08:01:24;93439.59;;;13.97;91.76
57248;BME280;55809;46.618;10.764;2023-05-25T08:03:53;93432.09;;;14.04;88.25
57248;BME280;55809;46.618;10.764;2023-05-25T08:06:28;93427.78;;;14.11;89.21
57248;BME280;55809;46.618;10.764;2023-05-25T08:09:01;93416.41;;;14.46;89.12
57248;BME280;55809;46.618;10.764;2023-05-25T08:11:34;93412.59;;;14.71;85.22
57248;BME280;55809;46.618;10.764;2023-05-25T08:14:06;93396.34;;;14.91;80.90
57248;BME280;55809;46.618;10.764;2023-05-25T08:16:46;93449.50;;;16.38;81.32
57248;BME280;55809;46.618;10.764;2023-05-25T08:19:19;93444.00;;;16.78;78.08
57248;BME280;55809;46.618;10.764;2023-05-25T08:21:48;93460.25;;;17.31;79.48
57248;BME280;55809;46.618;10.764;2023-05-25T08:24:16;93450.19;;;17.28;76.29
57248;BME280;55809;46.618;10.764;2023-05-25T08:26:44;93415.41;;;16.67;75.49
57248;BME280;55809;46.618;10.764;2023-05-25T08:29:13;93441.78;;;16.90;76.90
57248;BME280;55809;46.618;10.764;2023-05-25T08:31:40;93442.84;;;17.41;75.34
57248;BME280;55809;46.618;10.764;2023-05-25T08:34:09;93446.88;;;18.24;71.11
57248;BME280;55809;46.618;10.764;2023-05-25T08:36:37;93444.78;;;18.15;71.19
57248;BME280;55809;46.618;10.764;2023-05-25T08:39:18;93429.81;;;18.20;69.42
57248;BME280;55809;46.618;10.764;2023-05-25T08:41:49;93410.16;;;18.38;68.18
57248;BME280;55809;46.618;10.764;2023-05-25T08:44:16;93456.59;;;19.40;64.92
57248;BME280;55809;46.618;10.764;2023-05-25T08:46:46;93446.41;;;19.88;62.54
57248;BME280;55809;46.618;10.764;2023-05-25T08:49:14;93446.53;;;20.28;61.28
57248;BME280;55809;46.618;10.764;2023-05-25T08:51:45;93401.53;;;20.48;59.55
57248;BME280;55809;46.618;10.764;2023-05-25T08:54:16;93444.56;;;20.91;59.69
57248;BME280;55809;46.618;10.764;2023-05-25T08:56:50;93427.72;;;21.20;57.69
57248;BME280;55809;46.618;10.764;2023-05-25T08:59:29;93380.28;;;21.11;56.93
57248;BME280;55809;46.618;10.764;2023-05-25T09:02:07;93424.91;;;21.70;55.36
57248;BME280;55809;46.618;10.764;2023-05-25T09:04:38;93439.25;;;21.83;54.80
57248;BME280;55809;46.618;10.764;2023-05-25T09:07:40;93446.97;;;20.89;58.14
57248;BME280;55809;46.618;10.764;2023-05-25T09:10:09;93441.53;;;20.58;58.25
57248;BME280;55809;46.618;10.764;2023-05-25T09:12:41;93436.53;;;21.15;58.02
57248;BME280;55809;46.618;10.764;2023-05-25T09:15:10;93385.47;;;20.06;58.29
57248;BME280;55809;46.618;10.764;2023-05-25T09:17:38;93441.16;;;19.81;61.98
57248;BME280;55809;46.618;10.764;2023-05-25T09:20:09;93430.00;;;19.40;63.88
57248;BME280;55809;46.618;10.764;2023-05-25T09:22:39;93409.84;;;19.82;62.19
57248;BME280;55809;46.618;10.764;2023-05-25T09:25:10;93454.88;;;20.78;60.00
57248;BME280;55809;46.618;10.764;2023-05-25T09:27:40;93463.94;;;20.97;60.27
57248;BME280;55809;46.618;10.764;2023-05-25T09:30:10;93462.50;;;21.23;59.60
57248;BME280;55809;46.618;10.764;2023-05-25T09:32:39;93465.47;;;21.38;59.93
57248;BME280;55809;46.618;10.764;2023-05-25T09:35:09;93464.25;;;21.48;59.22
57248;BME280;55809;46.618;10.764;2023-05-25T09:37:39;93447.63;;;21.02;58.53
57248;BME280;55809;46.618;10.764;2023-05-25T09:40:09;93442.25;;;21.30;58.85
57248;BME280;55809;46.618;10.764;2023-05-25T09:42:40;93449.00;;;21.47;59.03
57248;BME280;55809;46.618;10.764;2023-05-25T09:45:09;93441.25;;;21.83;58.31
57248;BME280;55809;46.618;10.764;2023-05-25T09:47:46;93429.78;;;21.57;55.78
57248;BME280;55809;46.618;10.764;2023-05-25T09:50:22;93474.22;;;21.73;56.99
57248;BME280;55809;46.618;10.764;2023-05-25T09:52:55;93464.75;;;21.74;58.02
57248;BME280;55809;46.618;10.764;2023-05-25T09:55:24;93474.06;;;21.18;58.22
57248;BME280;55809;46.618;10.764;2023-05-25T09:58:01;93433.16;;;20.61;58.40
57248;BME280;55809;46.618;10.764;2023-05-25T10:00:30;93475.53;;;21.01;59.33
57248;BME280;55809;46.618;10.764;2023-05-25T10:02:59;93463.44;;;20.80;60.52
57248;BME280;55809;46.618;10.764;2023-05-25T10:05:27;93484.59;;;20.79;60.25
57248;BME280;55809;46.618;10.764;2023-05-25T10:08:02;93482.78;;;20.85;62.62
57248;BME280;55809;46.618;10.764;2023-05-25T10:10:32;93483.19;;;20.44;62.43
57248;BME280;55809;46.618;10.764;2023-05-25T10:13:06;93462.69;;;20.89;59.25
57248;BME280;55809;46.618;10.764;2023-05-25T10:15:36;93448.13;;;21.10;58.59
57248;BME280;55809;46.618;10.764;2023-05-25T10:18:05;93475.19;;;21.30;58.64
57248;BME280;55809;46.618;10.764;2023-05-25T10:20:38;93484.13;;;21.62;57.83
57248;BME280;55809;46.618;10.764;2023-05-25T10:23:11;93476.94;;;21.55;57.07
57248;BME280;55809;46.618;10.764;2023-05-25T10:25:43;93432.09;;;20.99;55.55
57248;BME280;55809;46.618;10.764;2023-05-25T10:28:18;93464.75;;;21.06;60.65
57248;BME280;55809;46.618;10.764;2023-05-25T10:30:48;93473.34;;;20.55;62.15
57248;BME280;55809;46.618;10.764;2023-05-25T10:33:25;93442.63;;;19.73;59.98
57248;BME280;55809;46.618;10.764;2023-05-25T10:36:03;93451.44;;;19.89;63.78
57248;BME280;55809;46.618;10.764;2023-05-25T10:38:31;93466.19;;;20.36;63.04
57248;BME280;55809;46.618;10.764;2023-05-25T10:41:03;93431.72;;;20.26;63.30
57248;BME280;55809;46.618;10.764;2023-05-25T10:43:35;93457.06;;;20.08;63.61
57248;BME280;55809;46.618;10.764;2023-05-25T10:46:04;93460.41;;;19.68;66.16
57248;BME280;55809;46.618;10.764;2023-05-25T10:48:36;93434.78;;;19.02;63.78
57248;BME280;55809;46.618;10.764;2023-05-25T10:51:08;93430.84;;;19.03;67.58
57248;BME280;55809;46.618;10.764;2023-05-25T10:53:43;93431.72;;;19.00;64.15
57248;BME280;55809;46.618;10.764;2023-05-25T10:56:12;93449.00;;;18.96;65.47
57248;BME280;55809;46.618;10.764;2023-05-25T10:58:46;93456.69;;;18.89;66.37
57248;BME280;55809;46.618;10.764;2023-05-25T11:01:14;93456.25;;;18.78;65.58
57248;BME280;55809;46.618;10.764;2023-05-25T11:03:47;93444.66;;;18.73;64.45
57248;BME280;55809;46.618;10.764;2023-05-25T11:06:17;93452.59;;;18.55;65.27
57248;BME280;55809;46.618;10.764;2023-05-25T11:08:51;93422.50;;;18.42;64.82
57248;BME280;55809;46.618;10.764;2023-05-25T11:12:00;93455.25;;;18.97;64.96
57248;BME280;55809;46.618;10.764;2023-05-25T11:14:35;93428.91;;;19.38;63.53
57248;BME280;55809;46.618;10.764;2023-05-25T11:17:12;93426.13;;;19.16;61.27
57248;BME280;55809;46.618;10.764;2023-05-25T11:19:45;93453.38;;;19.19;61.49
57248;BME280;55809;46.618;10.764;2023-05-25T11:22:15;93453.91;;;19.14;59.99
57248;BME280;55809;46.618;10.764;2023-05-25T11:24:45;93437.50;;;19.02;62.83
57248;BME280;55809;46.618;10.764;2023-05-25T11:27:21;93449.50;;;19.30;63.59
57248;BME280;55809;46.618;10.764;2023-05-25T11:30:02;93442.94;;;19.27;64.80
57248;BME280;55809;46.618;10.764;2023-05-25T11:32:34;93429.88;;;18.96;59.71
57248;BME280;55809;46.618;10.764;2023-05-25T11:35:06;93433.81;;;18.83;62.19
57248;BME280;55809;46.618;10.764;2023-05-25T11:37:39;93384.75;;;17.99;62.01
57248;BME280;55809;46.618;10.764;2023-05-25T11:40:07;93413.56;;;17.87;63.70
57248;BME280;55809;46.618;10.764;2023-05-25T11:42:37;93381.03;;;17.64;64.63
57248;BME280;55809;46.618;10.764;2023-05-25T11:45:09;93380.41;;;17.72;65.55
57248;BME280;55809;46.618;10.764;2023-05-25T11:47:39;93407.78;;;17.85;65.10
57248;BME280;55809;46.618;10.764;2023-05-25T11:50:07;93389.13;;;17.67;66.93
57248;BME280;55809;46.618;10.764;2023-05-25T11:52:41;93418.63;;;17.72;65.23
57248;BME280;55809;46.618;10.764;2023-05-25T11:55:10;93424.53;;;17.71;67.80
57248;BME280;55809;46.618;10.764;2023-05-25T11:57:39;93357.50;;;17.41;66.79
57248;BME280;55809;46.618;10.764;2023-05-25T12:00:10;93422.97;;;17.99;67.70
57248;BME280;55809;46.618;10.764;2023-05-25T12:02:39;93420.25;;;17.99;67.69
57248;BME280;55809;46.618;10.764;2023-05-25T12:05:07;93396.31;;;17.90;68.03
57248;BME280;55809;46.618;10.764;2023-05-25T12:07:41;93393.59;;;18.03;69.30
57248;BME280;55809;46.618;10.764;2023-05-25T12:10:09;93375.44;;;17.84;68.22
57248;BME280;55809;46.618;10.764;2023-05-25T12:12:39;93397.41;;;17.93;69.37
57248;BME280;55809;46.618;10.764;2023-05-25T12:15:10;93396.66;;;17.92;67.45
57248;BME280;55809;46.618;10.764;2023-05-25T12:17:40;93405.06;;;17.98;67.99
57248;BME280;55809;46.618;10.764;2023-05-25T12:20:09;93403.66;;;18.06;67.65
57248;BME280;55809;46.618;10.764;2023-05-25T12:22:37;93400.41;;;18.11;65.77
57248;BME280;55809;46.618;10.764;2023-05-25T12:25:06;93395.34;;;18.10;64.47
57248;BME280;55809;46.618;10.764;2023-05-25T12:27:33;93399.44;;;18.18;64.87
57248;BME280;55809;46.618;10.764;2023-05-25T12:30:01;93356.44;;;17.93;62.84
57248;BME280;55809;46.618;10.764;2023-05-25T12:32:30;93388.63;;;18.27;64.55
57248;BME280;55809;46.618;10.764;2023-05-25T12:35:04;93376.38;;;18.32;63.26
57248;BME280;55809;46.618;10.764;2023-05-25T12:37:31;93392.53;;;18.39;65.27
57248;BME280;55809;46.618;10.764;2023-05-25T12:39:59;93341.38;;;18.01;64.70
57248;BME280;55809;46.618;10.764;2023-05-25T12:42:26;93387.66;;;18.46;65.40
57248;BME280;55809;46.618;10.764;2023-05-25T12:44:56;93385.78;;;18.56;64.39
57248;BME280;55809;46.618;10.764;2023-05-25T12:47:25;93361.50;;;18.33;63.58
57248;BME280;55809;46.618;10.764;2023-05-25T12:50:12;93349.38;;;18.21;63.59
57248;BME280;55809;46.618;10.764;2023-05-25T12:52:40;93377.03;;;18.48;61.05
57248;BME280;55809;46.618;10.764;2023-05-25T12:55:22;93353.53;;;18.25;61.65
57248;BME280;55809;46.618;10.764;2023-05-25T12:57:51;93358.78;;;18.20;63.26
57248;BME280;55809;46.618;10.764;2023-05-25T13:00:20;93363.16;;;18.17;64.70
57248;BME280;55809;46.618;10.764;2023-05-25T13:02:48;93373.09;;;18.24;65.75
57248;BME280;55809;46.618;10.764;2023-05-25T13:05:21;93343.38;;;18.13;67.17
57248;BME280;55809;46.618;10.764;2023-05-25T13:07:48;93334.09;;;18.23;65.48
57248;BME280;55809;46.618;10.764;2023-05-25T13:10:16;93367.63;;;18.49;66.37
57248;BME280;55809;46.618;10.764;2023-05-25T13:12:44;93352.44;;;18.48;67.35
57248;BME280;55809;46.618;10.764;2023-05-25T13:15:13;93353.00;;;18.56;67.12
57248;BME280;55809;46.618;10.764;2023-05-25T13:17:41;93338.34;;;18.50;66.71
57248;BME280;55809;46.618;10.764;2023-05-25T13:20:11;93349.28;;;18.76;67.10
57248;BME280;55809;46.618;10.764;2023-05-25T13:22:40;93303.78;;;18.56;66.99